Time;durP1;ratioP1;P1;durP2;ratioP2;P2;SDS_P1;SDS_P2;PMS_P1;PMS_P2;Temp;Humidity;BMP_temperature;BMP_pressure;BME280_temperature;BME280_humidity;BME280_pressure;Samples;Min_cycle;Max_cycle;Signal;HPM_P1;HPM_P2
2021/12/05 00:19:58;;;;;;;4.80;4.40;;;0.70;99.90;0.30;95321.00;;;;5048977;28;20431;-75
2021/12/05 00:22:48;;;;;;;4.60;3.83;;;0.70;99.90;0.40;95313.00;;;;5048663;28;20481;-77
2021/12/05 00:25:42;;;;;;;5.83;4.57;;;0.70;99.90;0.40;95317.00;;;;5049643;28;20439;-77
2021/12/05 00:34:51;;;;;;;3.93;3.60;;;0.60;99.90;0.10;95312.00;;;;5049200;28;20438;-79
2021/12/05 00:41:26;;;;;;;6.67;3.60;;;0.60;99.90;0.40;95317.00;;;;5091426;28;20452;-78
2021/12/05 00:47:42;;;;;;;4.50;4.07;;;0.60;99.90;0.30;95309.00;;;;5105912;28;20436;-78
2021/12/05 01:00:27;;;;;;;5.50;4.67;;;0.70;99.90;0.50;95326.00;;;;5026403;28;20439;-76
2021/12/05 01:06:56;;;;;;;6.27;4.10;;;0.70;99.90;0.40;95324.00;;;;5102989;28;20805;-78
2021/12/05 01:09:52;;;;;;;4.53;3.87;;;0.70;99.90;0.20;95317.00;;;;5090811;28;20476;-77
2021/12/05 01:12:45;;;;;;;6.13;4.23;;;0.70;99.90;0.30;95315.00;;;;5086561;28;20948;-78
2021/12/05 01:15:34;;;;;;;5.13;4.13;;;0.70;99.90;0.30;95318.00;;;;5090234;28;20432;-77
2021/12/05 01:18:25;;;;;;;4.17;3.87;;;0.70;99.90;0.40;95310.00;;;;5086550;28;20442;-78
2021/12/05 01:21:20;;;;;;;4.37;3.97;;;0.70;99.90;0.40;95317.00;;;;5084314;28;20442;-75
2021/12/05 01:24:25;;;;;;;3.93;3.53;;;0.70;99.90;0.40;95317.00;;;;5086169;28;20426;-78
2021/12/05 01:27:20;;;;;;;4.30;3.80;;;0.70;99.90;0.30;95320.00;;;;5082119;28;20477;-76
2021/12/05 01:30:17;;;;;;;4.47;4.07;;;0.70;99.90;0.40;95317.00;;;;5100577;28;20468;-77
2021/12/05 01:33:12;;;;;;;4.40;4.00;;;0.60;99.90;0.40;95310.00;;;;5087276;28;20608;-77
2021/12/05 01:36:12;;;;;;;3.60;3.30;;;0.60;99.90;0.40;95305.00;;;;5092368;28;20440;-77
2021/12/05 01:39:13;;;;;;;3.43;3.07;;;0.70;99.90;0.40;95303.00;;;;5091690;28;20424;-79
2021/12/05 01:42:34;;;;;;;4.10;3.80;;;0.70;99.90;0.20;95306.00;;;;5089017;28;20451;-79
2021/12/05 01:49:08;;;;;;;4.53;4.13;;;0.60;99.90;0.30;95313.00;;;;5021260;28;20428;-78
2021/12/05 01:58:42;;;;;;;6.23;3.97;;;0.60;99.90;0.30;95313.00;;;;5040587;28;20434;-76
2021/12/05 02:08:05;;;;;;;4.17;3.67;;;0.60;99.90;0.30;95328.00;;;;5084584;28;20868;-76
2021/12/05 02:33:28;;;;;;;5.53;4.37;;;0.40;99.90;0.10;95308.00;;;;5068849;28;20434;-77
2021/12/05 02:39:39;;;;;;;3.90;3.57;;;0.40;99.90;0.10;95310.00;;;;5077124;28;20440;-76
2021/12/05 02:42:31;;;;;;;5.43;4.10;;;0.40;99.90;0.10;95296.00;;;;5069513;28;20459;-77
2021/12/05 02:45:21;;;;;;;5.03;4.50;;;0.40;99.90;0.10;95300.00;;;;5069507;28;20976;-75
2021/12/05 02:48:10;;;;;;;5.73;4.67;;;0.40;99.90;-0.10;95310.00;;;;5073152;28;20433;-77
2021/12/05 02:51:01;;;;;;;4.00;3.67;;;0.40;99.90;-0.20;95303.00;;;;5067122;28;20834;-76
2021/12/05 02:54:18;;;;;;;5.07;4.67;;;0.30;99.90;-0.20;95293.00;;;;5070978;28;20433;-77
2021/12/05 02:57:08;;;;;;;5.33;4.83;;;0.30;99.90;-0.10;95294.00;;;;5067741;28;20826;-75
2021/12/05 02:59:58;;;;;;;4.10;3.60;;;0.20;99.90;-0.20;95277.00;;;;5084680;28;20429;-77
2021/12/05 03:02:51;;;;;;;5.30;4.80;;;0.20;99.90;-0.40;95269.00;;;;5075598;28;20445;-76
2021/12/05 03:05:43;;;;;;;5.27;4.70;;;0.20;99.90;-0.30;95273.00;;;;5077770;28;20984;-77
2021/12/05 03:08:32;;;;;;;7.53;5.27;;;0.10;99.90;-0.40;95274.00;;;;5080423;28;20437;-76
2021/12/05 03:11:24;;;;;;;5.97;5.23;;;0.10;99.90;-0.70;95269.00;;;;5085640;28;20863;-75
2021/12/05 03:14:14;;;;;;;4.67;4.27;;;0.10;99.90;-0.50;95268.00;;;;5087698;28;20426;-77
2021/12/05 03:17:03;;;;;;;4.37;4.07;;;0.00;99.90;-0.40;95252.00;;;;5086033;28;20426;-77
2021/12/05 03:19:52;;;;;;;5.00;4.50;;;0.70;99.90;-0.30;95254.00;;;;5066789;28;20439;-77
2021/12/05 03:22:41;;;;;;;6.00;4.20;;;0.00;99.90;-0.30;95263.00;;;;5085283;28;20433;-74
2021/12/05 03:25:32;;;;;;;7.10;5.07;;;0.00;99.90;-0.50;95269.00;;;;5085404;28;20448;-75
2021/12/05 03:28:23;;;;;;;5.37;4.80;;;0.00;99.90;-0.60;95269.00;;;;5080248;28;20454;-76
2021/12/05 03:31:13;;;;;;;5.07;4.60;;;0.00;99.90;-0.70;95265.00;;;;5074543;28;20869;-77
2021/12/05 03:34:05;;;;;;;5.73;4.90;;;-0.10;99.90;-0.50;95267.00;;;;5083139;28;20419;-76
2021/12/05 03:36:57;;;;;;;4.57;4.20;;;-0.10;99.90;-0.40;95261.00;;;;5105233;27;20791;-77
2021/12/05 03:39:46;;;;;;;4.77;4.33;;;-0.10;99.90;-0.40;95252.00;;;;5099914;28;20427;-76
2021/12/05 03:42:36;;;;;;;5.40;4.90;;;-0.10;99.90;-0.50;95253.00;;;;5098640;28;20483;-76
2021/12/05 03:45:34;;;;;;;8.27;4.63;;;-0.10;99.90;-0.70;95249.00;;;;5103936;27;21083;-77
2021/12/05 03:48:26;;;;;;;6.60;5.20;;;-0.10;99.90;-0.60;95244.00;;;;5099775;27;20428;-75
2021/12/05 03:51:19;;;;;;;5.03;4.43;;;-0.10;99.90;-0.40;95246.00;;;;5091762;28;20461;-77
2021/12/05 03:54:09;;;;;;;7.40;3.87;;;-0.10;99.90;-0.40;95239.00;;;;5104768;28;20437;-77
2021/12/05 03:56:59;;;;;;;4.63;4.23;;;-0.10;99.90;-0.50;95253.00;;;;5106158;28;20429;-77
2021/12/05 03:59:48;;;;;;;6.33;5.33;;;-0.10;99.90;-0.60;95253.00;;;;5092736;28;20443;-77
2021/12/05 04:02:39;;;;;;;5.00;4.57;;;-0.10;99.90;-0.60;95251.00;;;;5089166;28;20452;-77
2021/12/05 04:05:31;;;;;;;5.73;4.90;;;-0.10;99.90;-0.50;95246.00;;;;5113058;27;20429;-77
2021/12/05 04:08:24;;;;;;;7.53;5.37;;;-0.10;99.90;-0.60;95245.00;;;;5106121;27;20802;-76
2021/12/05 04:11:22;;;;;;;4.73;3.93;;;-0.10;99.90;-0.60;95228.00;;;;5097703;28;20460;-77
2021/12/05 04:14:14;;;;;;;7.70;4.53;;;-0.10;99.90;-0.50;95241.00;;;;5100112;27;20647;-75
2021/12/05 04:17:05;;;;;;;6.87;5.07;;;-0.10;99.90;-0.50;95241.00;;;;5103581;27;20422;-77
2021/12/05 04:19:55;;;;;;;6.67;5.17;;;-0.10;99.90;-0.40;95245.00;;;;5083356;28;20433;-76
2021/12/05 04:22:45;;;;;;;5.67;5.07;;;-0.10;99.90;-0.40;95243.00;;;;5085138;28;20438;-76
2021/12/05 04:25:37;;;;;;;6.03;5.10;;;-0.10;99.90;-0.30;95246.00;;;;5100001;27;20428;-77
2021/12/05 04:28:27;;;;;;;6.63;4.87;;;0.00;99.90;-0.30;95246.00;;;;5086190;28;20444;-75
2021/12/05 04:31:20;;;;;;;5.40;4.60;;;0.00;99.90;-0.40;95245.00;;;;5108948;28;20486;-77
2021/12/05 04:34:11;;;;;;;4.40;4.00;;;0.00;99.90;-0.30;95255.00;;;;5085497;28;20437;-77
2021/12/05 04:37:02;;;;;;;9.07;5.07;;;0.00;99.90;-0.20;95249.00;;;;5089893;28;20447;-75
2021/12/05 04:39:51;;;;;;;7.60;5.80;;;0.10;99.90;-0.20;95249.00;;;;5090489;28;20433;-77
2021/12/05 04:42:40;;;;;;;3.93;3.53;;;0.10;99.90;-0.20;95247.00;;;;5102571;28;20453;-77
2021/12/05 04:45:32;;;;;;;4.60;3.47;;;0.10;99.90;0.10;95237.00;;;;5091966;28;20455;-78
2021/12/05 04:48:21;;;;;;;6.43;4.13;;;0.20;99.90;0.20;95218.00;;;;5086348;28;20440;-76
2021/12/05 04:51:10;;;;;;;3.37;3.13;;;0.30;99.90;0.20;95214.00;;;;5103826;28;20978;-76
2021/12/05 04:54:02;;;;;;;7.00;4.27;;;0.40;99.90;0.30;95211.00;;;;5092095;28;20448;-77
2021/12/05 04:56:52;;;;;;;5.03;4.23;;;0.50;99.90;0.30;95231.00;;;;5098587;28;20973;-76
2021/12/05 04:59:46;;;;;;;4.57;3.57;;;0.50;99.90;0.40;95239.00;;;;5098548;28;20436;-77
2021/12/05 05:02:35;;;;;;;5.13;4.13;;;0.60;99.90;0.50;95260.00;;;;5095359;28;20448;-75
2021/12/05 05:05:27;;;;;;;3.23;2.93;;;0.60;99.90;0.50;95260.00;;;;5114369;28;20432;-76
2021/12/05 05:08:17;;;;;;;7.13;4.57;;;0.70;99.90;0.60;95269.00;;;;5090979;28;20428;-77
2021/12/05 05:11:14;;;;;;;4.60;4.00;;;0.70;99.90;0.60;95264.00;;;;5107758;28;20444;-75
2021/12/05 05:14:03;;;;;;;4.97;4.07;;;0.80;99.90;0.70;95268.00;;;;5098516;28;20924;-77
2021/12/05 05:16:54;;;;;;;5.00;3.47;;;0.90;99.90;0.70;95260.00;;;;5109929;28;20432;-77
2021/12/05 05:19:47;;;;;;;4.97;4.30;;;0.90;99.90;0.80;95270.00;;;;5101388;28;20433;-77
2021/12/05 05:22:43;;;;;;;5.90;3.63;;;0.90;99.90;0.70;95279.00;;;;5099281;28;20825;-78
2021/12/05 05:29:20;;;;;;;5.33;4.43;;;1.00;99.90;0.40;95289.00;;;;5092939;27;20437;-78
2021/12/05 05:42:25;;;;;;;3.53;3.23;;;0.80;99.90;0.40;95303.00;;;;5100561;28;20445;-78
2021/12/05 05:45:33;;;;;;;3.07;2.83;;;0.80;99.90;0.60;95294.00;;;;5101647;28;20707;-77
2021/12/05 05:48:34;;;;;;;4.07;3.73;;;0.80;99.90;0.50;95324.00;;;;5104058;28;20434;-76
2021/12/05 05:51:23;;;;;;;4.27;3.10;;;0.80;99.90;0.40;95338.00;;;;5099275;28;20441;-77
2021/12/05 05:54:12;;;;;;;4.50;3.90;;;0.80;99.90;0.40;95353.00;;;;5091050;28;20994;-76
2021/12/05 05:57:10;;;;;;;5.40;4.27;;;0.80;99.90;0.40;95352.00;;;;5091151;28;20448;-76
2021/12/05 06:00:06;;;;;;;5.17;3.73;;;0.80;99.90;0.50;95355.00;;;;5105017;28;20602;-78
2021/12/05 06:06:06;;;;;;;3.70;3.40;;;0.80;99.90;0.60;95373.00;;;;5114277;27;20443;-78
2021/12/05 06:08:55;;;;;;;4.93;4.50;;;0.80;99.90;0.50;95375.00;;;;5115113;27;20424;-78
2021/12/05 06:11:44;;;;;;;5.27;4.77;;;0.80;99.90;0.60;95367.00;;;;5094810;28;20457;-77
2021/12/05 06:14:33;;;;;;;4.30;3.83;;;0.80;99.90;0.60;95371.00;;;;5108689;27;20872;-77
2021/12/05 06:17:21;;;;;;;5.33;4.47;;;0.80;99.90;0.60;95353.00;;;;5105698;28;20446;-75
2021/12/05 06:20:16;;;;;;;6.03;4.60;;;0.80;99.90;0.70;95363.00;;;;5102017;28;20447;-76
2021/12/05 06:23:05;;;;;;;7.83;4.50;;;0.90;99.90;0.60;95370.00;;;;5100938;28;20431;-76
2021/12/05 06:25:55;;;;;;;4.87;3.97;;;0.90;99.90;0.60;95372.00;;;;5093427;28;20806;-77
2021/12/05 06:28:46;;;;;;;3.73;3.13;;;0.90;99.90;0.70;95363.00;;;;5097715;27;20434;-77
2021/12/05 06:31:51;;;;;;;4.53;4.07;;;0.90;99.90;0.70;95362.00;;;;5109619;27;20821;-77
2021/12/05 06:38:04;;;;;;;5.40;3.93;;;0.90;99.90;0.50;95351.00;;;;5101569;28;20444;-76
2021/12/05 06:41:06;;;;;;;5.37;4.00;;;0.90;99.90;0.60;95345.00;;;;5095209;28;20456;-75
2021/12/05 06:47:02;;;;;;;3.97;3.23;;;0.90;99.90;0.40;95358.00;;;;5106341;28;20438;-77
2021/12/05 06:49:53;;;;;;;4.93;4.30;;;0.90;99.90;0.40;95350.00;;;;5089880;28;20505;-76
2021/12/05 06:53:06;;;;;;;7.47;5.43;;;0.90;99.90;0.50;95348.00;;;;5101579;28;20479;-75
2021/12/05 06:55:55;;;;;;;5.67;4.60;;;0.90;99.90;0.60;95357.00;;;;5105935;28;20432;-75
2021/12/05 06:58:45;;;;;;;4.90;4.23;;;0.90;99.90;0.60;95364.00;;;;5106212;28;20417;-77
2021/12/05 07:01:34;;;;;;;5.60;4.63;;;0.90;99.90;0.70;95378.00;;;;5099883;28;20991;-76
2021/12/05 07:04:47;;;;;;;7.43;5.87;;;0.90;99.90;0.60;95367.00;;;;5097689;28;20437;-77
2021/12/05 07:07:39;;;;;;;9.80;6.57;;;0.90;99.90;0.60;95364.00;;;;5096349;28;20472;-75
2021/12/05 07:10:35;;;;;;;8.43;5.30;;;0.90;99.90;0.70;95369.00;;;;5099732;28;20432;-76
2021/12/05 07:14:00;;;;;;;9.20;5.67;;;0.90;99.90;0.70;95375.00;;;;5097925;27;21013;-76
2021/12/05 07:16:53;;;;;;;10.50;6.83;;;1.00;99.90;0.60;95360.00;;;;5096977;28;20432;-77
2021/12/05 07:19:55;;;;;;;8.07;6.23;;;1.00;99.90;0.60;95374.00;;;;5093753;28;20433;-76
2021/12/05 07:22:54;;;;;;;7.13;6.13;;;1.00;99.90;0.70;95378.00;;;;5083068;28;21122;-75
2021/12/05 07:25:52;;;;;;;9.03;5.90;;;1.00;99.90;0.80;95368.00;;;;5083914;28;20979;-75
2021/12/05 07:41:21;;;;;;;6.43;5.60;;;1.10;99.90;0.90;95375.00;;;;5083370;28;21168;-77
2021/12/05 07:44:11;;;;;;;6.00;5.40;;;1.10;99.90;0.90;95364.00;;;;5084245;28;20497;-78
2021/12/05 07:47:01;;;;;;;6.50;5.70;;;1.20;99.90;0.90;95371.00;;;;5085547;27;20441;-78
2021/12/05 07:49:52;;;;;;;7.30;5.37;;;1.10;99.90;0.40;95385.00;;;;5085871;28;20441;-79
2021/12/05 07:52:46;;;;;;;8.23;6.93;;;1.10;99.90;0.40;95385.00;;;;5089829;28;20461;-76
2021/12/05 07:55:40;;;;;;;12.43;8.77;;;1.00;99.90;0.50;95396.00;;;;5084653;28;20434;-76
2021/12/05 08:17:14;;;;;;;8.33;6.67;;;1.10;99.90;1.10;95410.00;;;;5083824;28;20440;-77
2021/12/05 08:20:05;;;;;;;7.67;4.67;;;1.10;99.90;1.00;95417.00;;;;5079694;28;20433;-75
2021/12/05 08:22:55;;;;;;;12.27;5.70;;;1.20;99.90;0.90;95425.00;;;;5082218;28;20434;-76
2021/12/05 08:25:52;;;;;;;6.23;5.03;;;1.20;99.90;0.80;95424.00;;;;5087183;28;20412;-77
2021/12/05 08:29:02;;;;;;;7.93;5.37;;;1.20;99.90;0.70;95442.00;;;;5084085;28;20449;-76
2021/12/05 08:32:08;;;;;;;12.13;6.07;;;1.10;99.90;0.60;95446.00;;;;5076290;28;20637;-77
2021/12/05 08:35:09;;;;;;;11.63;7.97;;;1.10;99.90;0.80;95446.00;;;;5080324;28;20439;-77
2021/12/05 10:03:07;;;;;;;23.27;12.03;;;1.70;99.90;1.10;95450.00;;;;5077521;28;20437;-78
2021/12/05 10:09:12;;;;;;;22.17;12.23;;;1.60;99.90;1.00;95459.00;;;;5061896;28;21004;-77
2021/12/05 10:12:19;;;;;;;32.77;21.63;;;1.50;99.90;0.80;95463.00;;;;5076142;28;20457;-78
2021/12/05 10:15:26;;;;;;;13.87;10.30;;;1.40;99.90;0.90;95472.00;;;;5072393;28;20445;-78
2021/12/05 10:34:02;;;;;;;10.57;9.47;;;1.40;99.90;1.40;95476.00;;;;5081332;28;20425;-78
2021/12/05 10:37:08;;;;;;;10.27;8.60;;;1.40;99.90;1.40;95481.00;;;;5065941;28;20428;-78
2021/12/05 10:40:07;;;;;;;11.33;10.27;;;1.50;99.90;1.30;95489.00;;;;5053395;28;20454;-78
2021/12/05 10:42:56;;;;;;;13.30;11.10;;;1.50;99.90;1.30;95477.00;;;;5037368;28;20440;-77
2021/12/05 10:45:50;;;;;;;17.13;13.13;;;1.50;99.90;1.40;95475.00;;;;5056406;28;20435;-76
2021/12/05 10:48:43;;;;;;;18.23;12.57;;;1.60;99.90;1.30;95448.00;;;;5026849;28;20529;-76
2021/12/05 10:51:37;;;;;;;16.37;11.53;;;1.60;99.90;1.20;95450.00;;;;5041907;28;22348;-77
2021/12/05 10:54:28;;;;;;;16.00;13.67;;;1.50;99.90;1.00;95450.00;;;;5052222;28;20445;-77
2021/12/05 10:57:28;;;;;;;21.53;16.67;;;1.50;99.90;0.70;95460.00;;;;5049667;28;20478;-77
2021/12/05 11:00:20;;;;;;;14.23;11.53;;;1.40;99.90;0.60;95452.00;;;;5051170;28;20458;-74
2021/12/05 11:03:20;;;;;;;14.13;12.30;;;1.30;99.90;0.50;95454.00;;;;5051441;28;21050;-76
2021/12/05 11:06:29;;;;;;;14.63;12.87;;;1.20;99.90;0.80;95461.00;;;;5045162;28;20941;-75
2021/12/05 11:09:24;;;;;;;15.80;11.80;;;1.20;99.90;1.00;95448.00;;;;5052564;28;20438;-72
2021/12/05 11:12:15;;;;;;;16.03;12.13;;;1.20;99.90;1.10;95448.00;;;;5043522;28;20935;-73
2021/12/05 11:15:10;;;;;;;18.40;12.23;;;1.30;99.90;1.30;95443.00;;;;5044241;28;20857;-76
2021/12/05 11:18:02;;;;;;;15.40;12.53;;;1.40;99.90;1.40;95443.00;;;;5047828;28;20837;-76
2021/12/05 11:20:53;;;;;;;15.00;12.53;;;1.40;99.90;1.50;95439.00;;;;5046076;28;20962;-75
2021/12/05 11:23:42;;;;;;;16.90;12.70;;;1.50;99.90;1.60;95438.00;;;;5039237;28;20431;-76
2021/12/05 11:26:31;;;;;;;16.47;13.47;;;1.60;99.90;1.60;95433.00;;;;5036289;28;20455;-76
2021/12/05 11:29:22;;;;;;;17.03;13.53;;;1.70;99.90;1.50;95432.00;;;;5035955;28;20440;-77
2021/12/05 11:32:20;;;;;;;14.23;11.50;;;1.70;99.90;1.30;95450.00;;;;5028709;28;20506;-75
2021/12/05 11:35:30;;;;;;;15.67;10.67;;;1.70;99.90;1.10;95461.00;;;;5047270;28;20424;-77
2021/12/05 11:38:22;;;;;;;13.43;11.13;;;1.60;99.90;1.20;95460.00;;;;5046651;28;20428;-77
2021/12/05 11:41:16;;;;;;;17.57;10.67;;;1.60;99.90;1.30;95453.00;;;;5047404;28;20477;-75
2021/12/05 11:44:05;;;;;;;12.07;10.00;;;1.50;99.90;1.30;95454.00;;;;5047035;28;20934;-77
2021/12/05 11:46:54;;;;;;;15.93;11.67;;;1.50;99.90;1.30;95459.00;;;;5043027;28;20720;-77
2021/12/05 11:49:43;;;;;;;12.03;9.70;;;1.50;99.90;1.30;95464.00;;;;5027559;28;20428;-77
2021/12/05 11:52:40;;;;;;;15.63;11.57;;;1.50;99.90;1.40;95470.00;;;;5048139;28;20454;-77
2021/12/05 11:55:32;;;;;;;13.53;10.17;;;1.50;99.90;1.40;95466.00;;;;5038234;28;20436;-74
2021/12/05 11:58:23;;;;;;;18.97;11.27;;;1.50;99.90;1.40;95459.00;;;;5048455;28;20969;-77
2021/12/05 12:01:14;;;;;;;19.27;11.90;;;1.60;99.90;1.40;95458.00;;;;5046912;28;20449;-77
2021/12/05 12:04:06;;;;;;;14.37;11.47;;;1.50;99.90;1.40;95443.00;;;;5053481;28;20459;-76
2021/12/05 12:07:18;;;;;;;15.60;12.27;;;1.60;99.90;1.50;95434.00;;;;5055292;28;20427;-78
2021/12/05 12:10:13;;;;;;;16.03;12.10;;;1.60;99.90;1.40;95439.00;;;;5048654;28;20978;-78
2021/12/05 12:13:08;;;;;;;11.30;9.03;;;1.60;99.90;1.50;95430.00;;;;5038917;28;20439;-78
2021/12/05 12:16:06;;;;;;;11.20;9.13;;;1.70;99.90;1.60;95429.00;;;;5043918;28;20442;-79
2021/12/05 12:18:57;;;;;;;14.67;11.00;;;1.70;99.90;1.60;95413.00;;;;5047184;28;20821;-77
2021/12/05 12:21:48;;;;;;;13.30;10.50;;;1.70;99.90;1.50;95426.00;;;;5048471;28;21284;-76
2021/12/05 12:24:39;;;;;;;18.70;11.50;;;1.70;99.90;1.60;95410.00;;;;5049081;28;20434;-76
2021/12/05 12:27:29;;;;;;;11.13;9.80;;;1.70;99.90;1.60;95415.00;;;;5032558;28;21225;-78
2021/12/05 12:30:25;;;;;;;13.80;10.00;;;1.80;99.90;1.60;95426.00;;;;5046053;28;20425;-75
2021/12/05 12:33:30;;;;;;;15.87;9.53;;;1.80;99.90;1.20;95415.00;;;;5039543;28;20418;-76
2021/12/05 12:36:35;;;;;;;20.43;14.33;;;1.70;99.90;1.10;95408.00;;;;5060191;28;20437;-75
2021/12/05 12:39:37;;;;;;;15.00;12.33;;;1.60;99.90;1.10;95400.00;;;;5044297;28;21009;-76
2021/12/05 12:42:30;;;;;;;15.00;11.80;;;1.60;99.90;1.40;95398.00;;;;5052049;28;20976;-77
2021/12/05 12:45:21;;;;;;;17.53;12.57;;;1.60;99.90;1.50;95382.00;;;;5045083;28;20443;-75
2021/12/05 12:48:18;;;;;;;13.67;11.47;;;1.60;99.90;1.60;95377.00;;;;5043769;28;20844;-78
2021/12/05 12:51:08;;;;;;;12.03;10.17;;;1.60;99.90;1.70;95381.00;;;;5047031;28;20466;-77
2021/12/05 12:54:02;;;;;;;21.90;15.43;;;1.70;99.90;1.50;95379.00;;;;5047384;28;20453;-76
2021/12/05 12:57:05;;;;;;;15.87;12.73;;;1.80;99.90;1.20;95399.00;;;;5054810;28;20937;-76
2021/12/05 13:00:02;;;;;;;17.07;12.70;;;1.70;99.90;1.10;95395.00;;;;5037769;28;20920;-74
2021/12/05 13:02:58;;;;;;;15.70;12.37;;;1.60;99.90;1.10;95403.00;;;;5042382;28;20840;-76
2021/12/05 13:12:08;;;;;;;19.03;12.50;;;1.50;99.90;1.40;95399.00;;;;5038953;28;20467;-76
2021/12/05 13:15:08;;;;;;;13.10;11.13;;;1.60;99.90;1.60;95392.00;;;;5034828;28;20446;-78
2021/12/05 13:18:04;;;;;;;12.33;10.63;;;1.60;99.90;1.80;95385.00;;;;5050686;28;20429;-76
2021/12/05 13:20:57;;;;;;;13.57;12.17;;;1.70;99.90;1.90;95381.00;;;;5052454;28;20458;-78
2021/12/05 13:23:50;;;;;;;17.17;12.17;;;1.80;99.90;1.90;95360.00;;;;5043842;28;20430;-76
2021/12/05 13:26:42;;;;;;;15.20;13.13;;;1.90;99.90;1.80;95363.00;;;;5036555;28;20447;-76
2021/12/05 13:29:33;;;;;;;16.13;13.40;;;1.90;99.90;1.50;95368.00;;;;5035359;28;20471;-76
2021/12/05 13:32:26;;;;;;;16.90;13.43;;;1.90;99.90;1.70;95369.00;;;;5039050;28;20482;-77
2021/12/05 13:35:26;;;;;;;16.33;11.93;;;1.90;99.90;1.80;95372.00;;;;5049913;28;20440;-76
2021/12/05 13:38:36;;;;;;;16.83;13.63;;;1.90;99.90;2.00;95376.00;;;;5030393;28;20525;-76
2021/12/05 13:41:27;;;;;;;13.10;9.93;;;1.90;99.90;2.00;95375.00;;;;5027603;28;20452;-77
2021/12/05 13:44:16;;;;;;;14.63;11.00;;;2.00;99.90;2.10;95374.00;;;;5036238;28;20447;-76
2021/12/05 13:47:18;;;;;;;16.07;12.23;;;2.10;99.90;1.80;95372.00;;;;5038068;28;20494;-77
2021/12/05 13:50:37;;;;;;;14.47;10.87;;;2.10;99.90;1.90;95370.00;;;;5042168;28;20957;-76
2021/12/05 13:53:35;;;;;;;12.83;10.23;;;2.10;99.90;1.90;95371.00;;;;5044916;28;20441;-74
2021/12/05 13:56:28;;;;;;;12.73;11.40;;;2.00;99.90;1.30;95365.00;;;;5041569;28;20424;-75
2021/12/05 13:59:27;;;;;;;14.67;11.77;;;2.00;99.90;1.10;95377.00;;;;5035893;28;20424;-75
2021/12/05 14:02:17;;;;;;;17.97;13.20;;;1.80;99.90;1.00;95380.00;;;;5042221;28;20550;-76
2021/12/05 14:05:30;;;;;;;14.43;11.77;;;1.70;99.90;1.30;95378.00;;;;5048026;28;20446;-74
2021/12/05 14:08:19;;;;;;;18.77;15.53;;;1.60;99.90;1.40;95370.00;;;;5043641;28;20478;-75
2021/12/05 14:11:13;;;;;;;21.90;16.83;;;1.60;99.90;1.40;95372.00;;;;5048657;28;20968;-75
2021/12/05 14:14:05;;;;;;;7.63;6.67;;;1.60;99.90;1.40;95380.00;;;;5046614;28;20427;-76
2021/12/05 14:16:57;;;;;;;22.03;15.77;;;1.60;99.90;1.30;95398.00;;;;5035890;28;20457;-76
2021/12/05 14:19:49;;;;;;;24.97;17.47;;;1.60;99.90;1.10;95405.00;;;;5046520;28;20962;-77
2021/12/05 14:22:43;;;;;;;18.80;13.93;;;1.60;99.90;1.20;95402.00;;;;5044211;28;20447;-76
2021/12/05 14:25:33;;;;;;;20.87;14.90;;;1.50;99.90;1.30;95403.00;;;;5050874;28;20430;-74
2021/12/05 14:28:22;;;;;;;17.60;12.50;;;1.70;99.90;1.00;95393.00;;;;5045720;28;21103;-77
2021/12/05 14:31:11;;;;;;;18.13;13.50;;;1.50;99.90;0.80;95391.00;;;;5035829;28;20447;-75
2021/12/05 14:34:01;;;;;;;16.87;12.23;;;1.40;99.90;0.90;95397.00;;;;5048257;28;20435;-77
2021/12/05 14:36:54;;;;;;;20.40;13.27;;;1.40;99.90;1.00;95402.00;;;;5053697;28;20436;-76
2021/12/05 14:39:46;;;;;;;15.70;11.97;;;1.40;99.90;1.10;95398.00;;;;5050514;28;20832;-75
2021/12/05 14:42:38;;;;;;;10.87;9.40;;;1.30;99.90;1.50;95398.00;;;;5050553;28;20446;-75
2021/12/05 14:45:29;;;;;;;9.37;8.00;;;1.40;99.90;1.50;95405.00;;;;5052165;28;21075;-76
2021/12/05 14:48:18;;;;;;;14.03;9.40;;;1.50;99.90;2.20;95405.00;;;;5043519;28;20424;-76
2021/12/05 14:51:10;;;;;;;19.37;13.47;;;1.70;99.90;2.10;95408.00;;;;5050270;28;20443;-76
2021/12/05 14:54:00;;;;;;;14.77;12.13;;;1.90;99.90;1.80;95413.00;;;;5046327;28;20443;-76
2021/12/05 14:56:51;;;;;;;18.73;14.00;;;1.90;99.90;1.90;95417.00;;;;5047940;28;20764;-76
2021/12/05 14:59:44;;;;;;;14.60;11.83;;;1.90;99.90;1.90;95400.00;;;;5046307;28;20486;-74
2021/12/05 15:02:34;;;;;;;16.00;13.23;;;2.00;99.90;1.90;95407.00;;;;5040209;28;20455;-73
2021/12/05 15:05:23;;;;;;;12.90;9.77;;;2.00;99.90;1.40;95403.00;;;;5041506;28;20426;-75
2021/12/05 15:08:15;;;;;;;15.00;8.83;;;1.90;99.90;1.80;95413.00;;;;5058413;28;20433;-74
2021/12/05 15:11:08;;;;;;;11.50;10.00;;;1.80;99.90;1.80;95420.00;;;;5058074;28;20439;-75
2021/12/05 15:14:06;;;;;;;9.90;7.93;;;1.90;99.90;1.80;95412.00;;;;5042132;28;20845;-76
2021/12/05 15:17:06;;;;;;;7.77;6.83;;;1.90;99.90;2.10;95412.00;;;;5048346;28;20435;-76
2021/12/05 15:19:58;;;;;;;9.50;8.27;;;1.90;99.90;2.20;95416.00;;;;5052211;28;20439;-74
2021/12/05 15:23:04;;;;;;;11.23;9.43;;;2.00;99.90;2.30;95434.00;;;;5052545;28;20423;-75
2021/12/05 15:25:53;;;;;;;8.73;7.63;;;0.70;99.90;2.30;95428.00;;;;5063400;28;20422;-76
2021/12/05 15:28:42;;;;;;;9.13;7.97;;;2.30;99.90;2.10;95434.00;;;;5049511;28;20805;-74
2021/12/05 15:31:39;;;;;;;7.80;6.33;;;2.30;99.90;2.20;95440.00;;;;5052471;28;20450;-77
2021/12/05 15:34:34;;;;;;;8.83;6.80;;;2.20;99.90;2.10;95448.00;;;;5046750;28;20451;-76
2021/12/05 15:37:24;;;;;;;7.17;6.43;;;2.20;99.90;2.20;95460.00;;;;5044689;28;20442;-76
2021/12/05 15:40:13;;;;;;;9.70;7.67;;;2.20;99.90;1.60;95468.00;;;;5051114;28;20418;-76
2021/12/05 15:43:06;;;;;;;10.40;7.40;;;2.20;99.90;1.40;95476.00;;;;5052219;28;20446;-75
2021/12/05 15:45:58;;;;;;;9.43;6.33;;;2.10;99.90;1.40;95475.00;;;;5050847;28;20466;-73
2021/12/05 15:48:49;;;;;;;8.20;6.97;;;1.90;99.90;1.30;95493.00;;;;5047961;28;20449;-74
2021/12/05 15:51:37;;;;;;;10.27;6.63;;;1.80;99.90;1.60;95490.00;;;;5041062;28;20471;-75
2021/12/05 15:54:30;;;;;;;8.70;7.60;;;1.80;99.90;1.40;95489.00;;;;5042359;28;20455;-75
2021/12/05 15:57:30;;;;;;;8.43;6.17;;;1.70;99.90;1.30;95486.00;;;;5052616;28;20887;-75
2021/12/05 16:00:24;;;;;;;9.33;6.90;;;1.70;99.90;1.10;95482.00;;;;5045377;28;20969;-74
2021/12/05 16:03:16;;;;;;;7.77;5.80;;;1.60;99.90;0.90;95484.00;;;;5040426;28;20431;-76
2021/12/05 16:06:07;;;;;;;10.07;7.20;;;1.50;99.90;0.70;95490.00;;;;5039284;28;20451;-76
2021/12/05 16:08:57;;;;;;;13.70;7.43;;;1.40;99.90;0.70;95490.00;;;;5042305;28;20454;-74
2021/12/05 16:11:49;;;;;;;11.90;7.20;;;1.30;99.90;0.70;95496.00;;;;5048971;28;20826;-77
2021/12/05 16:14:43;;;;;;;14.33;9.10;;;1.20;99.90;0.70;95501.00;;;;5044012;28;20953;-76
2021/12/05 16:17:33;;;;;;;12.93;8.80;;;1.20;99.90;0.70;95495.00;;;;5044817;28;20443;-76
2021/12/05 16:20:29;;;;;;;14.23;8.43;;;1.10;99.90;0.70;95507.00;;;;5053138;28;20973;-76
2021/12/05 16:23:24;;;;;;;10.07;7.50;;;1.10;99.90;0.70;95514.00;;;;5045142;28;21272;-77
2021/12/05 16:26:16;;;;;;;8.17;6.57;;;1.10;99.90;0.60;95512.00;;;;5037224;28;20834;-75
2021/12/05 16:29:09;;;;;;;9.87;6.63;;;1.10;99.90;0.70;95506.00;;;;5036735;28;20458;-76
2021/12/05 16:32:00;;;;;;;7.20;5.73;;;1.00;99.90;0.70;95508.00;;;;5044696;28;20447;-77
2021/12/05 16:34:51;;;;;;;9.60;7.17;;;1.10;99.90;0.70;95507.00;;;;5047842;28;20477;-76
2021/12/05 16:37:40;;;;;;;6.90;5.83;;;1.00;99.90;0.70;95513.00;;;;5046867;28;20439;-75
2021/12/05 16:40:55;;;;;;;11.43;7.43;;;1.10;99.90;0.70;95507.00;;;;5043618;28;20795;-76
2021/12/05 16:43:54;;;;;;;12.63;8.87;;;1.00;99.90;0.60;95510.00;;;;5043298;28;20436;-75
2021/12/05 16:46:47;;;;;;;7.77;5.77;;;1.00;99.90;0.60;95507.00;;;;5045091;28;20574;-76
2021/12/05 16:49:39;;;;;;;8.43;7.00;;;1.00;99.90;0.50;95510.00;;;;5047909;28;20474;-76
2021/12/05 16:52:33;;;;;;;8.97;6.23;;;1.00;99.90;0.60;95508.00;;;;5049798;28;21099;-76
2021/12/05 16:55:27;;;;;;;8.63;6.60;;;1.00;99.90;0.50;95504.00;;;;5046887;28;20449;-77
2021/12/05 16:58:18;;;;;;;10.33;6.37;;;1.00;99.90;0.60;95497.00;;;;5038416;28;20832;-75
2021/12/05 17:01:07;;;;;;;10.43;7.90;;;1.00;99.90;0.60;95503.00;;;;5030277;28;20451;-75
2021/12/05 17:03:56;;;;;;;8.87;7.80;;;1.00;99.90;0.60;95507.00;;;;5041600;28;20442;-76
2021/12/05 17:06:55;;;;;;;10.27;8.10;;;1.00;99.90;0.60;95505.00;;;;5035148;28;20436;-77
2021/12/05 17:09:45;;;;;;;9.87;8.87;;;1.00;99.90;0.70;95514.00;;;;5034551;28;20471;-77
2021/12/05 17:12:35;;;;;;;10.10;8.10;;;1.00;99.90;0.70;95507.00;;;;5036047;28;20444;-77
2021/12/05 17:15:29;;;;;;;8.67;6.67;;;1.00;99.90;0.70;95516.00;;;;5028215;28;20420;-77